createdAt,value
2023-03-06T00:01:38.932Z,91936.66
2023-03-06T00:04:23.140Z,91939.88
2023-03-06T00:07:05.973Z,91939.78
2023-03-06T00:09:48.783Z,91937.13
2023-03-06T00:12:31.588Z,91937.03
2023-03-06T00:15:15.717Z,91935.19
2023-03-06T00:17:58.629Z,91941.84
2023-03-06T00:20:44.642Z,91933.69
2023-03-06T00:23:27.628Z,91938.03
2023-03-06T00:26:10.934Z,91933.69
2023-03-06T00:28:55.925Z,91942.88
2023-03-06T00:31:38.786Z,91941.16
2023-03-06T00:34:21.594Z,91936.09
2023-03-06T00:37:05.864Z,91929.31
2023-03-06T00:39:49.511Z,91925.19
2023-03-06T00:42:32.334Z,91912.56
2023-03-06T00:45:15.839Z,91916.81
2023-03-06T00:47:58.692Z,91915.22
2023-03-06T00:50:41.510Z,91903.38
2023-03-06T00:53:26.285Z,91901.75
2023-03-06T00:56:09.538Z,91901.88
2023-03-06T00:58:52.422Z,91900.25
2023-03-06T01:01:35.223Z,91891.88
2023-03-06T01:04:18.094Z,91889.34
2023-03-06T01:07:00.932Z,91880.16
2023-03-06T01:09:45.119Z,91880.84
2023-03-06T01:12:27.998Z,91875.22
2023-03-06T01:15:12.226Z,91872.00
2023-03-06T01:17:55.294Z,91867.97
2023-03-06T01:20:38.159Z,91861.41
2023-03-06T01:23:20.982Z,91858.31
2023-03-06T01:26:05.542Z,91859.22
2023-03-06T01:28:48.229Z,91859.34
2023-03-06T01:31:31.022Z,91844.19
2023-03-06T01:34:13.874Z,91840.97
2023-03-06T01:36:56.695Z,91836.97
2023-03-06T01:39:39.483Z,91838.66
2023-03-06T01:42:23.660Z,91840.16
2023-03-06T01:45:09.366Z,91835.09
2023-03-06T01:47:52.757Z,91828.34
2023-03-06T01:50:35.580Z,91821.56
2023-03-06T01:53:20.672Z,91814.91
2023-03-06T01:56:03.777Z,91817.41
2023-03-06T01:58:49.852Z,91834.19
2023-03-06T02:01:33.917Z,91825.00
2023-03-06T02:04:18.578Z,91813.19
2023-03-06T02:07:04.786Z,91810.09
2023-03-06T02:09:49.789Z,91808.47
2023-03-06T02:12:32.960Z,91800.91
2023-03-06T02:15:20.392Z,91800.78
2023-03-06T02:18:03.291Z,91809.28
2023-03-06T02:20:50.355Z,91800.00
2023-03-06T02:23:40.040Z,91789.88
2023-03-06T02:26:27.461Z,91788.28
2023-03-06T02:29:10.939Z,91795.59
2023-03-06T02:31:53.739Z,91781.28
2023-03-06T02:34:58.051Z,91786.09
2023-03-06T02:37:40.816Z,91777.47
2023-03-06T02:40:24.412Z,91782.53
2023-03-06T02:43:08.814Z,91776.78
2023-03-06T02:45:52.651Z,91775.88
2023-03-06T02:48:35.662Z,91767.50
2023-03-06T02:51:18.568Z,91765.75
2023-03-06T02:54:01.436Z,91749.91
2023-03-06T02:56:44.253Z,91741.78
2023-03-06T02:59:28.551Z,91736.16
2023-03-06T03:02:12.328Z,91742.47
2023-03-06T03:04:55.354Z,91744.41
2023-03-06T03:07:39.352Z,91737.16
2023-03-06T03:10:23.142Z,91741.09
2023-03-06T03:13:06.178Z,91739.00
2023-03-06T03:15:59.733Z,91745.09
2023-03-06T03:18:44.413Z,91731.88
2023-03-06T03:21:27.698Z,91731.78
2023-03-06T03:24:11.530Z,91738.19
2023-03-06T03:26:54.332Z,91737.75
2023-03-06T03:29:38.745Z,91738.22
2023-03-06T03:32:23.091Z,91737.03
2023-03-06T03:35:07.301Z,91726.72
2023-03-06T03:37:52.624Z,91723.97
2023-03-06T03:40:35.615Z,91727.97
2023-03-06T03:43:19.090Z,91727.75
2023-03-06T03:46:02.386Z,91726.06
2023-03-06T03:48:46.593Z,91723.53
2023-03-06T03:51:29.869Z,91719.16
2023-03-06T03:54:14.644Z,91719.03
2023-03-06T03:57:01.161Z,91708.81
2023-03-06T03:59:48.860Z,91716.50
2023-03-06T04:02:38.703Z,91707.19
2023-03-06T04:05:31.237Z,91702.41
2023-03-06T04:08:14.236Z,91707.91
2023-03-06T04:10:59.807Z,91705.50
2023-03-06T04:13:42.690Z,91694.59
2023-03-06T04:16:25.891Z,91701.59
2023-03-06T04:19:08.787Z,91699.31
2023-03-06T04:21:53.153Z,91693.00
2023-03-06T04:24:36.044Z,91689.78
2023-03-06T04:27:19.230Z,91685.78
2023-03-06T04:30:02.094Z,91680.25
2023-03-06T04:32:45.419Z,91677.25
2023-03-06T04:35:28.713Z,91679.00
2023-03-06T04:38:20.427Z,91678.88
2023-03-06T04:41:03.458Z,91677.94
2023-03-06T04:43:46.414Z,91685.41
2023-03-06T04:46:29.295Z,91679.66
2023-03-06T04:49:12.208Z,91672.66
2023-03-06T04:51:54.989Z,91660.59
2023-03-06T04:54:39.209Z,91667.16
2023-03-06T04:57:22.105Z,91662.69
2023-03-06T05:00:06.424Z,91662.47
2023-03-06T05:02:50.065Z,91653.16
2023-03-06T05:05:32.926Z,91659.03
2023-03-06T05:08:17.741Z,91661.31
2023-03-06T05:11:03.026Z,91655.34
2023-03-06T05:13:45.794Z,91661.91
2023-03-06T05:16:28.698Z,91662.47
2023-03-06T05:19:11.545Z,91666.38
2023-03-06T05:21:54.399Z,91665.88
2023-03-06T05:24:38.152Z,91661.66
2023-03-06T05:27:22.361Z,91650.09
2023-03-06T05:30:06.504Z,91660.19
2023-03-06T05:32:49.313Z,91668.41
2023-03-06T05:35:32.961Z,91656.63
2023-03-06T05:38:16.648Z,91659.25
2023-03-06T05:40:59.480Z,91646.50
2023-03-06T05:43:43.742Z,91649.03
2023-03-06T05:46:26.764Z,91645.59
2023-03-06T05:49:09.671Z,91649.16
2023-03-06T05:51:52.497Z,91645.94
2023-03-06T05:54:37.186Z,91639.41
2023-03-06T05:57:20.877Z,91646.19
2023-03-06T06:00:06.058Z,91648.00
2023-03-06T06:02:55.386Z,91649.63
2023-03-06T06:05:40.247Z,91648.69
2023-03-06T06:08:23.051Z,91654.44
2023-03-06T06:11:06.773Z,91655.13
2023-03-06T06:13:49.966Z,91662.72
2023-03-06T06:16:34.144Z,91658.44
2023-03-06T06:19:20.213Z,91660.19
2023-03-06T06:22:03.856Z,91657.41
2023-03-06T06:24:46.667Z,91647.06
2023-03-06T06:27:29.470Z,91650.41
2023-03-06T06:30:13.929Z,91648.69
2023-03-06T06:32:57.920Z,91653.38
2023-03-06T06:35:40.695Z,91653.06
2023-03-06T06:38:23.651Z,91649.38
2023-03-06T06:41:33.347Z,91647.31
2023-03-06T06:44:14.432Z,91653.41
2023-03-06T06:50:01.486Z,91646.75
2023-03-06T06:52:44.308Z,91652.03
2023-03-06T06:55:27.121Z,91647.91
2023-03-06T06:58:09.917Z,91655.69
2023-03-06T07:00:52.878Z,91645.25
2023-03-06T07:03:35.984Z,91645.38
2023-03-06T07:06:20.234Z,91655.47
2023-03-06T07:09:03.698Z,91666.34
2023-03-06T07:11:46.630Z,91658.28
2023-03-06T07:14:29.514Z,91657.28
2023-03-06T07:17:12.360Z,91665.28
2023-03-06T07:19:55.132Z,91660.47
2023-03-06T07:22:50.275Z,91662.25
2023-03-06T07:25:34.417Z,91668.47
2023-03-06T07:28:18.669Z,91655.22
2023-03-06T07:31:02.391Z,91657.16
2023-03-06T07:33:45.310Z,91664.13
2023-03-06T07:36:28.155Z,91664.59
2023-03-06T07:39:12.357Z,91666.88
2023-03-06T07:41:55.518Z,91664.00
2023-03-06T07:44:39.003Z,91669.03
2023-03-06T07:47:21.839Z,91668.91
2023-03-06T07:50:06.972Z,91660.03
2023-03-06T07:52:50.778Z,91660.34
2023-03-06T07:55:34.935Z,91666.41
2023-03-06T07:58:17.777Z,91671.53
2023-03-06T08:01:04.872Z,91658.03
2023-03-06T08:03:49.994Z,91661.53
2023-03-06T08:06:33.708Z,91655.84
2023-03-06T08:09:16.506Z,91659.59
2023-03-06T08:12:00.860Z,91651.66
2023-03-06T08:14:43.868Z,91652.88
2023-03-06T08:17:27.053Z,91662.63
2023-03-06T08:20:11.631Z,91661.31
2023-03-06T08:22:54.352Z,91658.78
2023-03-06T08:25:37.194Z,91658.78
2023-03-06T08:28:21.334Z,91663.72
2023-03-06T08:31:09.787Z,91664.97
2023-03-06T08:33:53.210Z,91654.06
2023-03-06T08:36:36.091Z,91657.31
2023-03-06T08:39:19.344Z,91665.47
2023-03-06T08:42:02.123Z,91668.47
2023-03-06T08:44:46.396Z,91669.03
2023-03-06T08:47:29.534Z,91678.53
2023-03-06T08:50:13.102Z,91671.84
2023-03-06T08:52:55.906Z,91669.31
2023-03-06T08:55:39.085Z,91673.19
2023-03-06T08:58:22.052Z,91669.59
2023-03-06T09:01:07.448Z,91672.00
2023-03-06T09:03:50.927Z,91672.03
2023-03-06T09:06:36.172Z,91671.50
2023-03-06T09:09:20.179Z,91670.69
2023-03-06T09:12:03.019Z,91674.81
2023-03-06T09:14:45.850Z,91671.34
2023-03-06T09:17:30.114Z,91669.38
2023-03-06T09:20:13.761Z,91674.16
2023-03-06T09:22:56.542Z,91674.97
2023-03-06T09:25:39.471Z,91667.47
2023-03-06T09:28:22.507Z,91672.97
2023-03-06T09:31:08.899Z,91671.38
2023-03-06T09:33:53.209Z,91669.75
2023-03-06T09:36:53.345Z,91671.63
2023-03-06T09:39:39.075Z,91671.22
2023-03-06T09:42:23.777Z,91674.84
2023-03-06T09:45:07.739Z,91671.38
2023-03-06T09:47:53.898Z,91667.06
2023-03-06T09:50:45.625Z,91673.75
2023-03-06T09:53:47.937Z,91672.28
2023-03-06T09:56:33.812Z,91668.94
2023-03-06T09:59:21.163Z,91679.66
2023-03-06T10:02:15.510Z,91657.34
2023-03-06T10:05:04.081Z,91662.94
2023-03-06T10:07:54.011Z,91663.47
2023-03-06T10:10:43.471Z,91656.66
2023-03-06T10:13:33.595Z,91654.63
2023-03-06T10:16:28.657Z,91657.66
2023-03-06T10:19:15.031Z,91650.25
2023-03-06T10:22:03.239Z,91644.84
2023-03-06T10:24:54.600Z,91649.88
2023-03-06T10:27:46.057Z,91646.16
2023-03-06T10:30:39.717Z,91652.38
2023-03-06T10:33:31.365Z,91646.88
2023-03-06T10:36:16.875Z,91655.31
2023-03-06T10:39:00.702Z,91651.34
2023-03-06T10:41:46.323Z,91639.16
2023-03-06T10:44:29.127Z,91636.94
2023-03-06T10:47:30.099Z,91637.66
2023-03-06T10:50:26.218Z,91637.34
2023-03-06T10:53:21.288Z,91633.22
2023-03-06T10:56:04.276Z,91637.94
2023-03-06T10:58:48.489Z,91625.94
2023-03-06T11:01:31.967Z,91630.84
2023-03-06T11:04:24.879Z,91625.34
2023-03-06T11:07:13.708Z,91624.63
2023-03-06T11:10:19.518Z,91614.09
2023-03-06T11:13:06.232Z,91617.44
2023-03-06T11:15:58.205Z,91616.78
2023-03-06T11:18:43.103Z,91614.81
2023-03-06T11:21:31.297Z,91617.50
2023-03-06T11:24:19.686Z,91618.81
2023-03-06T11:27:14.267Z,91617.72
2023-03-06T11:30:00.705Z,91610.44
2023-03-06T11:32:50.421Z,91610.44
2023-03-06T11:35:40.426Z,91612.13
2023-03-06T11:38:30.885Z,91612.25
2023-03-06T11:41:21.158Z,91608.13
2023-03-06T11:44:13.756Z,91598.00
2023-03-06T11:47:06.181Z,91604.47
2023-03-06T11:49:55.363Z,91604.94
2023-03-06T11:52:45.233Z,91599.75
2023-03-06T11:55:40.445Z,91602.81
2023-03-06T11:58:51.872Z,91601.22
2023-03-06T12:01:38.364Z,91601.63
2023-03-06T12:04:43.123Z,91597.78
2023-03-06T12:07:33.956Z,91596.22
2023-03-06T12:10:23.349Z,91601.34
2023-03-06T12:16:32.672Z,91597.28
2023-03-06T12:19:37.078Z,91589.44
2023-03-06T12:22:42.260Z,91588.66
2023-03-06T12:25:35.172Z,91595.72
2023-03-06T12:28:34.986Z,91592.50
2023-03-06T12:31:29.845Z,91589.16
2023-03-06T12:34:20.234Z,91587.69
2023-03-06T12:37:14.912Z,91581.97
2023-03-06T12:40:20.166Z,91589.28
2023-03-06T12:43:36.985Z,91587.94
2023-03-06T12:46:24.020Z,91579.78
2023-03-06T12:49:12.346Z,91574.97
2023-03-06T12:51:57.293Z,91580.63
2023-03-06T12:54:42.428Z,91580.53
2023-03-06T12:57:27.192Z,91580.28
2023-03-06T13:00:34.282Z,91575.63
2023-03-06T13:03:20.190Z,91571.63
2023-03-06T13:06:13.768Z,91564.13
2023-03-06T13:09:16.088Z,91567.50
2023-03-06T13:12:23.640Z,91562.13
2023-03-06T13:15:30.331Z,91566.28
2023-03-06T13:18:51.603Z,91568.66
2023-03-06T13:22:14.332Z,91564.81
2023-03-06T13:25:44.177Z,91565.59
2023-03-06T13:28:41.021Z,91557.97
2023-03-06T13:31:29.055Z,91560.53
2023-03-06T13:34:35.466Z,91569.91
2023-03-06T13:37:38.309Z,91564.50
2023-03-06T13:40:30.167Z,91561.06
2023-03-06T13:43:32.010Z,91559.22
2023-03-06T13:46:24.788Z,91562.63
2023-03-06T13:49:20.994Z,91562.13
2023-03-06T13:52:10.657Z,91560.56
2023-03-06T13:55:04.914Z,91555.91
2023-03-06T13:58:00.627Z,91559.25
2023-03-06T14:01:03.095Z,91552.09
2023-03-06T14:04:16.937Z,91545.94
2023-03-06T14:07:28.096Z,91549.41
2023-03-06T14:10:21.328Z,91549.56
2023-03-06T14:13:07.563Z,91550.22
2023-03-06T14:15:53.132Z,91544.34
2023-03-06T14:18:40.938Z,91554.22
2023-03-06T14:21:30.820Z,91549.31
2023-03-06T14:24:16.530Z,91552.91
2023-03-06T14:26:59.337Z,91552.53
2023-03-06T14:29:42.146Z,91552.00
2023-03-06T14:32:25.072Z,91548.66
2023-03-06T14:35:20.248Z,91551.44
2023-03-06T14:38:06.486Z,91547.31
2023-03-06T14:40:49.358Z,91546.09
2023-03-06T14:43:33.003Z,91545.97
2023-03-06T14:46:20.542Z,91550.91
2023-03-06T14:49:07.946Z,91546.94
2023-03-06T14:51:53.073Z,91544.91
2023-03-06T14:54:37.639Z,91546.75
2023-03-06T14:57:21.688Z,91543.81
2023-03-06T15:00:06.978Z,91543.28
2023-03-06T15:02:52.408Z,91546.19
2023-03-06T15:05:36.108Z,91549.38
2023-03-06T15:08:23.506Z,91555.81
2023-03-06T15:11:08.543Z,91547.94
2023-03-06T15:14:02.102Z,91546.38
2023-03-06T15:16:45.050Z,91543.97
2023-03-06T15:19:27.892Z,91551.44
2023-03-06T15:22:25.816Z,91547.44
2023-03-06T15:25:20.572Z,91543.44
2023-03-06T15:28:25.819Z,91545.97
2023-03-06T15:31:22.042Z,91543.56
2023-03-06T15:34:17.319Z,91548.91
2023-03-06T15:37:00.152Z,91544.09
2023-03-06T15:39:43.390Z,91548.81
2023-03-06T15:42:28.073Z,91540.53
2023-03-06T15:45:18.864Z,91546.94
2023-03-06T15:48:02.773Z,91539.75
2023-03-06T15:50:45.671Z,91543.75
2023-03-06T15:53:28.500Z,91544.28
2023-03-06T15:56:12.643Z,91547.63
2023-03-06T15:58:55.872Z,91551.91
2023-03-06T16:01:40.565Z,91552.94
2023-03-06T16:04:23.436Z,91555.47
2023-03-06T16:07:06.262Z,91561.75
2023-03-06T16:09:49.453Z,91557.88
2023-03-06T16:12:32.605Z,91564.91
2023-03-06T16:15:21.426Z,91562.41
2023-03-06T16:18:07.180Z,91558.78
2023-03-06T16:20:50.473Z,91562.63
2023-03-06T16:23:33.305Z,91563.69
2023-03-06T16:26:20.339Z,91568.09
2023-03-06T16:29:03.537Z,91562.59
2023-03-06T16:31:47.034Z,91561.66
2023-03-06T16:34:31.217Z,91566.59
2023-03-06T16:37:14.894Z,91561.53
2023-03-06T16:39:57.721Z,91560.34
2023-03-06T16:42:40.573Z,91569.41
2023-03-06T16:45:24.468Z,91568.38
2023-03-06T16:48:07.630Z,91569.97
2023-03-06T16:50:51.832Z,91568.91
2023-03-06T16:53:34.984Z,91569.03
2023-03-06T16:56:19.814Z,91569.81
2023-03-06T16:59:02.618Z,91568.91
2023-03-06T17:01:45.465Z,91573.97
2023-03-06T17:04:28.265Z,91562.22
2023-03-06T17:07:12.457Z,91568.13
2023-03-06T17:09:55.218Z,91567.56
2023-03-06T17:12:38.269Z,91573.44
2023-03-06T17:15:21.294Z,91569.97
2023-03-06T17:18:04.331Z,91572.50
2023-03-06T17:20:51.303Z,91574.22
2023-03-06T17:23:35.664Z,91571.28
2023-03-06T17:26:19.974Z,91581.53
2023-03-06T17:29:03.351Z,91574.19
2023-03-06T17:31:47.834Z,91580.19
2023-03-06T17:34:30.634Z,91581.78
2023-03-06T17:37:13.472Z,91579.25
2023-03-06T17:39:57.621Z,91591.66
2023-03-06T17:42:40.437Z,91592.16
2023-03-06T17:45:23.276Z,91593.63
2023-03-06T17:48:06.310Z,91595.72
2023-03-06T17:50:54.231Z,91593.19
2023-03-06T17:53:37.789Z,91600.25
2023-03-06T17:56:22.178Z,91604.41
2023-03-06T17:59:05.254Z,91602.53
2023-03-06T18:01:48.213Z,91597.47
2023-03-06T18:04:31.141Z,91598.16
2023-03-06T18:07:14.145Z,91592.94
2023-03-06T18:09:57.233Z,91596.16
2023-03-06T18:12:41.475Z,91597.09
2023-03-06T18:15:24.374Z,91595.47
2023-03-06T18:18:07.776Z,91600.53
2023-03-06T18:20:50.750Z,91598.56
2023-03-06T18:23:33.635Z,91600.13
2023-03-06T18:26:18.616Z,91605.56
2023-03-06T18:29:04.733Z,91601.03
2023-03-06T18:31:49.946Z,91605.13
2023-03-06T18:34:32.894Z,91607.94
2023-03-06T18:37:15.691Z,91615.66
2023-03-06T18:39:58.467Z,91619.78
2023-03-06T18:42:41.276Z,91619.69
2023-03-06T18:45:25.536Z,91616.47
2023-03-06T18:48:09.016Z,91612.16
2023-03-06T18:50:51.904Z,91616.19
2023-03-06T18:53:35.118Z,91612.56
2023-03-06T18:56:19.960Z,91609.91
2023-03-06T18:59:04.343Z,91622.56
2023-03-06T19:01:49.076Z,91617.50
2023-03-06T19:04:32.073Z,91619.94
2023-03-06T19:07:14.902Z,91623.13
2023-03-06T19:09:57.725Z,91623.00
2023-03-06T19:12:40.541Z,91627.81
2023-03-06T19:15:23.322Z,91629.41
2023-03-06T19:18:07.543Z,91630.34
2023-03-06T19:20:50.354Z,91623.69
2023-03-06T19:23:33.344Z,91639.66
2023-03-06T19:26:18.623Z,91629.41
2023-03-06T19:29:01.423Z,91636.09
2023-03-06T19:31:44.305Z,91638.63
2023-03-06T19:34:28.523Z,91634.25
2023-03-06T19:37:11.352Z,91628.25
2023-03-06T19:39:54.165Z,91635.84
2023-03-06T19:42:37.152Z,91628.91
2023-03-06T19:45:19.976Z,91630.63
2023-03-06T19:48:05.450Z,91633.16
2023-03-06T19:50:49.685Z,91636.63
2023-03-06T19:53:32.653Z,91635.03
2023-03-06T19:56:18.856Z,91635.16
2023-03-06T19:59:01.661Z,91631.13
2023-03-06T20:01:44.557Z,91631.28
2023-03-06T20:04:27.624Z,91630.06
2023-03-06T20:07:11.778Z,91630.28
2023-03-06T20:09:57.182Z,91630.44
2023-03-06T20:12:40.100Z,91642.41
2023-03-06T20:15:23.308Z,91631.59
2023-03-06T20:18:06.363Z,91636.66
2023-03-06T20:20:58.210Z,91636.66
2023-03-06T20:23:42.847Z,91636.13
2023-03-06T20:26:26.830Z,91639.44
2023-03-06T20:29:09.710Z,91637.16
2023-03-06T20:31:54.507Z,91639.81
2023-03-06T20:34:38.933Z,91635.78
2023-03-06T20:37:21.798Z,91639.94
2023-03-06T20:40:07.725Z,91642.59
2023-03-06T20:42:50.573Z,91639.25
2023-03-06T20:45:33.978Z,91644.31
2023-03-06T20:48:16.799Z,91647.66
2023-03-06T20:51:03.871Z,91649.38
2023-03-06T20:53:47.950Z,91649.38
2023-03-06T20:56:34.095Z,91642.59
2023-03-06T20:59:17.291Z,91645.13
2023-03-06T21:02:00.245Z,91647.66
2023-03-06T21:04:43.226Z,91645.50
2023-03-06T21:07:26.092Z,91642.97
2023-03-06T21:10:10.840Z,91641.22
2023-03-06T21:12:55.241Z,91629.41
2023-03-06T21:15:39.456Z,91636.06
2023-03-06T21:18:22.285Z,91637.66
2023-03-06T21:21:07.098Z,91631.78
2023-03-06T21:23:50.032Z,91630.09
2023-03-06T21:26:34.722Z,91633.25
2023-03-06T21:29:18.922Z,91625.66
2023-03-06T21:32:01.846Z,91628.19
2023-03-06T21:34:44.692Z,91629.13
2023-03-06T21:37:27.660Z,91624.88
2023-03-06T21:40:11.832Z,91624.06
2023-03-06T21:42:54.657Z,91621.44
2023-03-06T21:45:38.864Z,91619.81
2023-03-06T21:48:21.709Z,91627.41
2023-03-06T21:51:06.299Z,91625.94
2023-03-06T21:53:49.203Z,91625.38
2023-03-06T21:56:33.359Z,91626.28
2023-03-06T21:59:16.300Z,91620.69
2023-03-06T22:02:00.442Z,91625.06
2023-03-06T22:04:44.239Z,91621.16
2023-03-06T22:07:28.301Z,91615.56
2023-03-06T22:10:14.219Z,91613.16
2023-03-06T22:12:57.074Z,91609.81
2023-03-06T22:15:39.864Z,91602.25
2023-03-06T22:18:24.033Z,91602.25
2023-03-06T22:21:08.393Z,91594.66
2023-03-06T22:23:51.418Z,91597.44
2023-03-06T22:26:34.262Z,91591.56
2023-03-06T22:29:17.058Z,91592.50
2023-03-06T22:31:59.974Z,91583.53
2023-03-06T22:34:44.156Z,91585.38
2023-03-06T22:37:26.970Z,91579.53
2023-03-06T22:40:11.261Z,91587.13
2023-03-06T22:42:54.090Z,91594.59
2023-03-06T22:45:36.849Z,91590.81
2023-03-06T22:48:19.963Z,91590.16
2023-03-06T22:51:05.585Z,91589.34
2023-03-06T22:53:49.378Z,91592.03
2023-03-06T22:56:32.421Z,91585.34
2023-03-06T22:59:15.236Z,91582.00
2023-03-06T23:01:58.060Z,91576.94
2023-03-06T23:04:41.036Z,91580.41
2023-03-06T23:07:25.237Z,91576.16
2023-03-06T23:10:16.490Z,91578.56
2023-03-06T23:13:18.063Z,91578.56
2023-03-06T23:16:19.280Z,91581.09
2023-03-06T23:19:20.538Z,91576.94
2023-03-06T23:22:22.149Z,91571.09
2023-03-06T23:25:24.865Z,91583.84
2023-03-06T23:28:07.744Z,91580.53
2023-03-06T23:30:51.044Z,91576.41
2023-03-06T23:33:33.861Z,91581.72
2023-03-06T23:36:18.953Z,91575.28
2023-03-06T23:39:01.849Z,91576.09
2023-03-06T23:41:46.086Z,91575.28
2023-03-06T23:44:29.029Z,91579.56
2023-03-06T23:47:11.881Z,91576.34
2023-03-06T23:49:54.703Z,91555.28
2023-03-06T23:52:38.833Z,91556.78
2023-03-06T23:55:21.742Z,91555.06
2023-03-06T23:58:05.928Z,91571.97
